Weather at Woja Airport

Public forecast

Using degrees Celsius for public forecast. Weather courtesy of forecast.io.

Closest aviation weather report (METAR) to Woja Airport

Closest report is Bucholz Army Air Field, 90.4 nm (167.4 km) NNW.

2024/05/25 02:40 (retrieved 14 minutes ago)

PKWA 250240Z AUTO 08023G28KT 1SM HZ OVC014 29/26 A2986 RMK AO2 VIS M1/4V5 P0001 T02860255

Closest aviation forecast (TAF) to Woja Airport

Forecast is more than 12 hours old.

Closest forecast is Car Nicobar Air Force Base, 4,492.0 nm (8,319.2 km) W.

2024/05/24 12:00 (retrieved 15 hours ago)

TAF VOCX 240930Z 2412/2424 23010KT 6000 -RA SCT015 BKN080 TEMPO 2412/2414 21010G20KT 4000 TSRA SCT010 SCT018 FEW025CB BKN090